Airfield :
LOGIN :

Register | Disclaimer

   EN    FR    IT 

 










Legend :    VFR   Marginal VFR   IFR   Intensive IFR   Very Intensive IFR
Visi :
Ceiling :
>= 8 km
>= 3000ft
5 to 8 km
1000 to 3000 ft
1500m to 5 km
500 to 1000 ft
800 to 1500m
200 to 500 ft
< 800m
< 200 ft
Symbols :   Thunderstorms  Fog  Heavy snow  Heavy precipitations  Wind > 20 kt
SIGMETs :     Misc.  Thunderstorms  Icing  Turbulence  Mountain Waves  Volcanic Ashes






- Airport Elevation : 242 ft
- IATA code : DUB


EIDW - Dublin

CURRENT METAR :
  • 011400Z 27011KT 9999 FEW003 BKN005 08/08 Q1028 NOSIG

EXPIRED METARs :
  • 011330Z 27010KT 8000 FEW002 OVC004 08/07 Q1028 NOSIG
  • 011300Z 27009KT 9999 SCT003 BKN005 08/07 Q1028 NOSIG
  • 011230Z 26008KT 220V280 9999 SCT004 BKN006 08/07 Q1028 NOSIG
  • 011200Z 25006KT 200V290 9999 FEW004 SCT006 BKN009 08/07 Q1029 NOSIG

TAF AMD TAF EIDW
Valid from the 01 at 13:00 until the 02 at 12:00 UTC


011311Z 0113/0212 26007KT 9999 FEW005 BKN015
TEMPO 0113/0116 BKN012
PROB40
TEMPO 0113/0118 4000 -DZ BKN007
PROB30
TEMPO 0113/0202 BKN003
BECMG 0116/0118 BKN012
TEMPO 0118/0206 4000 -DZ BKN007
BECMG 0204/0206 26012KT
BECMG 0206/0208 FEW007 SCT020



MET'MAP, your aeronautical weather chart ! - Copyright ORBIFLY December 2007 - Disclaimer

ORBIFLY MET'MAP TEAM :

Programming & Development : Alexandra Zaïnal
Concept & original design : Baudouin d'Aumeries
Assistance for programming : Marc-Olivier Méhu
Technical & hardware support : Manuel Goepfert

Contact : metmap@orbifly.com




SOURCES & CREDITS :

   NOAA